EGCN/DSA METAR and TAF weather

Enter ICAO airport designator
Station Type Date Time Source
EGCN METAR 2019/12/05 22:50 UTC NOAA

EGCN 052250Z 23022KT 9999 SCT018 BKN023 12/09 Q1004


Station Type Date Time Source
EGCN Decoded METAR 2019/12/05 22:50 UTC NOAA

Station name not available
Dec 05, 2019 - 05:50 PM EST / 2019.12.05 2250 UTC
Wind: from the SW (230 degrees) at 25 MPH (22 KT):0
Visibility: greater than 7 mile(s):0
Sky conditions: mostly cloudy
Temperature: 53 F (12 C)
Dew Point: 48 F (9 C)
Relative Humidity: 81%
Pressure (altimeter): 29.65 in. Hg (1004 hPa)
ob: EGCN 052250Z 23022KT 9999 SCT018 BKN023 12/09 Q1004
cycle: 23

Station Type Date Time Source
EGCN TAF 2019/12/05 23:00 UTC NOAA

TAF
AMD EGCN 052302Z 0523/0618 23022KT 9999 FEW015 BKN025
BECMG 0523/0602 21012KT
TEMPO 0523/0610 8000 -RA BKN014 PROB40
TEMPO 0523/0609 4000 RADZ BKN008 PROB30
TEMPO 0602/0612 23015G25KT
TEMPO 0611/0617 7000 SHRA PROB30
TEMPO 0612/0616 26020G30KT 4000 +SHRA
BECMG 0616/0618 27009KT

Example: see airport list